This is the latest recevied weather packets stored in our database for station/object KM8V-8. If no packets are shown the sender has not sent any weather packets the latest 10 day(s).
| Time | Temp. | Humidity | Pressure | Rain* | Wind** | Luminosity | Snow |
|---|---|---|---|---|---|---|---|
| 1777957517 | 18.89° C | 67% | 1002.7 hPa | 0.25 mm | - | 0 W/m² | - |
| 1777956918 | 18.89° C | 67% | 1002.7 hPa | 0.25 mm | - | 0 W/m² | - |
| 1777956618 | 18.89° C | 67% | 1002.8 hPa | 0.25 mm | - | 0 W/m² | - |
| 1777956318 | 18.89° C | 67% | 1002.7 hPa | 0.25 mm | - | 0 W/m² | - |
| 1777956018 | 19.44° C | 65% | 1002.7 hPa | 0.25 mm | - | 0 W/m² | - |
| 1777955718 | 19.44° C | 65% | 1002.8 hPa | 0 mm | - | 0 W/m² | - |
| 1777955418 | 19.44° C | 65% | 1002.9 hPa | 0 mm | - | 0 W/m² | - |
| 1777955118 | 19.44° C | 65% | 1003 hPa | 0 mm | - | 0 W/m² | - |
| 1777954818 | 19.44° C | 66% | 1003 hPa | 0 mm | - | 0 W/m² | - |
| 1777954518 | 19.44° C | 65% | 1003 hPa | 0 mm | - | 0 W/m² | - |
| 1777954218 | 19.44° C | 65% | 1003 hPa | 0 mm | - | 0 W/m² | - |
| 1777953918 | 18.89° C | 65% | 1003 hPa | 0 mm | - | 0 W/m² | - |
| 1777953618 | 19.44° C | 65% | 1003 hPa | 0 mm | - | 0 W/m² | - |
| 1777943722 | 20.56° C | 56% | 1003 hPa | 0 mm | - | 0 W/m² | - |
| 1777943421 | 21.11° C | 56% | 1002.9 hPa | 0 mm | - | 0 W/m² | - |
| 1777943122 | 21.11° C | 56% | 1002.8 hPa | 0 mm | - | 0 W/m² | - |
| 1777942822 | 21.11° C | 55% | 1002.7 hPa | 0 mm | - | 0 W/m² | - |
| 1777942522 | 21.11° C | 55% | 1002.6 hPa | 0 mm | - | 0 W/m² | - |
| 1777942217 | 21.11° C | 54% | 1002.6 hPa | 0 mm | - | 0 W/m² | - |
| 1777941922 | 21.11° C | 54% | 1002.5 hPa | 0 mm | - | 1 W/m² | - |
| 1777940716 | 21.67° C | 55% | 1002.3 hPa | 0 mm | - | 7 W/m² | - |
| 1777940116 | 21.67° C | 55% | 1002.2 hPa | 0 mm | - | 13 W/m² | - |
| 1777939820 | 21.67° C | 55% | 1002.1 hPa | 0 mm | - | 15 W/m² | - |
| 1777939520 | 21.67° C | 55% | 1002 hPa | 0 mm | - | 18 W/m² | - |
| 1777938923 | 22.22° C | 55% | 1001.8 hPa | 0 mm | - | 25 W/m² | - |
* Rain latest hour (hover to see other rain measurements)
** Current wind speed in m/s (hover to see current wind gust speed)